Explorer Of The Seas — C6SE4 — position and weather

sailwx.info

Track history (hours):
 
Tides and Currents Weather Stations Pressure Air Temp Water Temp Dewpoint Dewpoint Depression Visibility Wind Speed Wind Dir Waves Ship Positions

Explorer Of The Seas

Operator: Royal Caribbean Cruises Ltd

Last reported at 2016-May-28 10:09 UTC. Time now 2016-May-31 21:42 UTC.
Position N 49°11' W 126°45'.

Length 311 m; draft 9.1 m.

Type: Passenger vessel. MMSI: 311316000.

Date/timePositionNaut miles runAvg speedWind from/ knotsBaromVisibWave heightAir tempDewpointWater temp
2016-May-28 10:09N 49°11' W 126°45'1422.4
2016-May-28 09:33N 49°03' W 126°28'2222.4
2016-May-28 08:33N 48°49' W 126°01'2322.2
2016-May-28 07:32N 48°37' W 125°32'6622.0
2016-May-28 04:33N 48°18' W 123°57'2020.3
2016-May-28 03:33N 48°13' W 123°27'1211.9
2016-May-28 02:33N 48°12' W 123°10'1918.2
2016-May-28 01:32N 48°09' W 122°42'1818.6
2016-May-28 00:34N 47°53' W 122°28'1716.6
2016-May-27 23:33N 47°37' W 122°23'0 0.5
2016-May-27 22:32N 47°38' W 122°23'0 0.0
2016-May-27 21:31N 47°38' W 122°23'0 0.0
2016-May-27 20:32N 47°38' W 122°23'0 0.0
2016-May-27 19:32N 47°38' W 122°23'0 0.0
2016-May-27 18:32N 47°38' W 122°23'0 0.0
2016-May-27 17:32N 47°38' W 122°23'0 0.0
2016-May-27 16:32N 47°38' W 122°23'0 0.0
2016-May-27 15:32N 47°38' W 122°23'0 0.0
2016-May-27 14:32N 47°38' W 122°23'0 0.0
2016-May-27 13:32N 47°38' W 122°23'0 0.0
2016-May-27 12:33N 47°38' W 122°23'7 6.8
2016-May-27 11:34N 47°44' W 122°27'1413.7
2016-May-27 10:34N 47°57' W 122°33'1413.4
2016-May-27 09:33N 48°09' W 122°43'1313.5
2016-May-27 08:33N 48°12' W 123°03'1313.4
2016-May-27 07:33N 48°10' W 123°23'10 9.8
2016-May-27 06:33N 48°13' W 123°36'11 5.6
2016-May-27 04:33N 48°17' W 123°53'8 7.9
2016-May-27 03:33N 48°16' W 123°41'8 7.5
2016-May-27 02:31N 48°16' W 123°29'8 8.8
2016-May-27 01:34N 48°24' W 123°24'1 1.0
2016-May-27 00:33N 48°25' W 123°24'0 0.0
2016-May-26 23:33N 48°25' W 123°24'0 0.0
2016-May-26 22:33N 48°25' W 123°24'0 0.0
2016-May-26 21:33N 48°25' W 123°24'0 0.0
2016-May-26 20:33N 48°25' W 123°24'0 0.0
2016-May-26 19:33N 48°25' W 123°24'0 0.0
2016-May-26 18:33N 48°25' W 123°24'0 0.0
2016-May-26 17:30N 48°25' W 123°24'0 0.0
2016-May-26 16:33N 48°25' W 123°24'0 0.0
2016-May-26 15:33N 48°25' W 123°24'6 5.6
2016-May-26 14:33N 48°19' W 123°24'1111.1
2016-May-26 13:33N 48°13' W 123°39'4414.5
2016-May-26 10:32N 48°28' W 124°41'1515.6
2016-May-26 09:34N 48°29' W 125°04'1515.1
2016-May-26 08:34N 48°33' W 125°25'1615.7
2016-May-26 07:33N 48°42' W 125°45'1818.3
2016-May-26 06:34N 48°53' W 126°08'1818.1
2016-May-26 05:34N 49°03' W 126°30'1818.4
2016-May-26 04:34N 49°14' W 126°52'  
2016-May-21 10:21N 49°14' W 126°52'1722.1
2016-May-21 09:34N 49°04' W 126°31'2221.9
2016-May-21 08:33N 48°51' W 126°04'2221.8
2016-May-21 07:33N 48°39' W 125°36'6822.2
2016-May-21 04:30N 48°18' W 123°59'2222.2
2016-May-21 03:32N 48°13' W 123°28'1313.5
2016-May-21 02:33N 48°13' W 123°08'2019.9
2016-May-21 01:32N 48°06' W 122°39'2020.4
2016-May-21 00:33N 47°48' W 122°26'1110.5
2016-May-20 23:33N 47°38' W 122°23'0 0.0
2016-May-20 22:33N 47°38' W 122°23'0 0.0
2016-May-20 21:33N 47°38' W 122°23'0 0.0
2016-May-20 20:33N 47°38' W 122°23'0 0.0
2016-May-20 19:33N 47°38' W 122°23'0 0.0
2016-May-20 18:33N 47°38' W 122°23'0 0.0
2016-May-20 17:33N 47°38' W 122°23'0 0.0
2016-May-20 16:33N 47°38' W 122°23'0 0.0
2016-May-20 15:33N 47°38' W 122°23'0 0.0
2016-May-20 14:33N 47°38' W 122°23'0 0.0
2016-May-20 13:33N 47°38' W 122°23'0 0.0
2016-May-20 12:33N 47°38' W 122°23'6 6.0
2016-May-20 11:34N 47°43' W 122°28'1413.9
2016-May-20 10:33N 47°56' W 122°32'1313.3
2016-May-20 09:33N 48°08' W 122°42'1413.8
2016-May-20 08:33N 48°12' W 123°02'1414.2
2016-May-20 07:33N 48°10' W 123°23'1211.9
2016-May-20 06:34N 48°13' W 123°40'4711.7
2016-May-20 02:33N 48°29' W 124°47'1211.7
2016-May-20 01:33N 48°28' W 125°05'1211.7
2016-May-20 00:33N 48°28' W 125°22'1212.1
2016-May-19 23:33N 48°30' W 125°40'1211.9
2016-May-19 22:33N 48°33' W 125°58'1211.9
2016-May-19 21:33N 48°36' W 126°15'1211.8
2016-May-19 20:33N 48°38' W 126°33'14 3.3
2016-May-19 16:14N 48°40' W 126°11'15 8.8
2016-May-19 14:33N 48°37' W 125°50'9 8.7
2016-May-19 13:33N 48°34' W 125°37'10 8.9
2016-May-19 12:23N 48°32' W 125°21'5613.4
2016-May-19 08:14N 48°19' W 123°60'1014.3
2016-May-19 07:32N 48°16' W 123°45'1212.3
2016-May-19 06:33N 48°18' W 123°27'8 8.3
2016-May-19 05:33N 48°23' W 123°18'1313.2
2016-May-19 04:33N 48°36' W 123°14'1313.2
2016-May-19 03:34N 48°47' W 123°02'1414.3
2016-May-19 02:33N 48°58' W 123°16'1615.9
2016-May-19 01:34N 49°08' W 123°34'1313.0
2016-May-19 00:33N 49°12' W 123°53'2 2.5
2016-May-18 23:33N 49°10' W 123°55'0 0.0
2016-May-18 22:33N 49°10' W 123°55'0 0.0
2016-May-18 21:33N 49°10' W 123°55'0 0.0
2016-May-18 20:33N 49°10' W 123°55'0 0.0
2016-May-18 19:33N 49°10' W 123°55'0 0.0
2016-May-18 18:33N 49°10' W 123°55'0 0.0
2016-May-18 17:33N 49°10' W 123°55'0 0.0
2016-May-18 16:33N 49°10' W 123°55'0 0.0
2016-May-18 15:33N 49°10' W 123°55'0 0.0
2016-May-18 14:33N 49°10' W 123°55'0 0.2
2016-May-18 13:33N 49°10' W 123°55'1010.1
2016-May-18 12:34N 49°12' W 123°40'1616.4
2016-May-18 11:33N 49°03' W 123°19'1616.1
2016-May-18 10:34N 48°52' W 123°02'  
Track history (hours):
 
Tides and Currents Weather Stations Pressure Air Temp Water Temp Dewpoint Dewpoint Depression Visibility Wind Speed Wind Dir Waves Ship Positions

Explorer Of The Seas

Operator: Royal Caribbean Cruises Ltd

Last reported at 2016-May-28 10:09 UTC. Time now 2016-May-31 21:42 UTC.
Position N 49°11' W 126°45'.

Length 311 m; draft 9.1 m.

Type: Passenger vessel. MMSI: 311316000.

Date/timePositionNaut miles runAvg speedWind from/ knotsBaromVisibWave heightAir tempDewpointWater temp
2016-May-28 10:09N 49°11' W 126°45'1422.4
2016-May-28 09:33N 49°03' W 126°28'2222.4
2016-May-28 08:33N 48°49' W 126°01'2322.2
2016-May-28 07:32N 48°37' W 125°32'6622.0
2016-May-28 04:33N 48°18' W 123°57'2020.3
2016-May-28 03:33N 48°13' W 123°27'1211.9
2016-May-28 02:33N 48°12' W 123°10'1918.2
2016-May-28 01:32N 48°09' W 122°42'1818.6
2016-May-28 00:34N 47°53' W 122°28'1716.6
2016-May-27 23:33N 47°37' W 122°23'0 0.5
2016-May-27 22:32N 47°38' W 122°23'0 0.0
2016-May-27 21:31N 47°38' W 122°23'0 0.0
2016-May-27 20:32N 47°38' W 122°23'0 0.0
2016-May-27 19:32N 47°38' W 122°23'0 0.0
2016-May-27 18:32N 47°38' W 122°23'0 0.0
2016-May-27 17:32N 47°38' W 122°23'0 0.0
2016-May-27 16:32N 47°38' W 122°23'0 0.0
2016-May-27 15:32N 47°38' W 122°23'0 0.0
2016-May-27 14:32N 47°38' W 122°23'0 0.0
2016-May-27 13:32N 47°38' W 122°23'0 0.0
2016-May-27 12:33N 47°38' W 122°23'7 6.8
2016-May-27 11:34N 47°44' W 122°27'1413.7
2016-May-27 10:34N 47°57' W 122°33'1413.4
2016-May-27 09:33N 48°09' W 122°43'1313.5
2016-May-27 08:33N 48°12' W 123°03'1313.4
2016-May-27 07:33N 48°10' W 123°23'10 9.8
2016-May-27 06:33N 48°13' W 123°36'11 5.6
2016-May-27 04:33N 48°17' W 123°53'8 7.9
2016-May-27 03:33N 48°16' W 123°41'8 7.5
2016-May-27 02:31N 48°16' W 123°29'8 8.8
2016-May-27 01:34N 48°24' W 123°24'1 1.0
2016-May-27 00:33N 48°25' W 123°24'0 0.0
2016-May-26 23:33N 48°25' W 123°24'0 0.0
2016-May-26 22:33N 48°25' W 123°24'0 0.0
2016-May-26 21:33N 48°25' W 123°24'0 0.0
2016-May-26 20:33N 48°25' W 123°24'0 0.0
2016-May-26 19:33N 48°25' W 123°24'0 0.0
2016-May-26 18:33N 48°25' W 123°24'0 0.0
2016-May-26 17:30N 48°25' W 123°24'0 0.0
2016-May-26 16:33N 48°25' W 123°24'0 0.0
2016-May-26 15:33N 48°25' W 123°24'6 5.6
2016-May-26 14:33N 48°19' W 123°24'1111.1
2016-May-26 13:33N 48°13' W 123°39'4414.5
2016-May-26 10:32N 48°28' W 124°41'1515.6
2016-May-26 09:34N 48°29' W 125°04'1515.1
2016-May-26 08:34N 48°33' W 125°25'1615.7
2016-May-26 07:33N 48°42' W 125°45'1818.3
2016-May-26 06:34N 48°53' W 126°08'1818.1
2016-May-26 05:34N 49°03' W 126°30'1818.4
2016-May-26 04:34N 49°14' W 126°52'  
2016-May-21 10:21N 49°14' W 126°52'1722.1
2016-May-21 09:34N 49°04' W 126°31'2221.9
2016-May-21 08:33N 48°51' W 126°04'2221.8
2016-May-21 07:33N 48°39' W 125°36'6822.2
2016-May-21 04:30N 48°18' W 123°59'2222.2
2016-May-21 03:32N 48°13' W 123°28'1313.5
2016-May-21 02:33N 48°13' W 123°08'2019.9
2016-May-21 01:32N 48°06' W 122°39'2020.4
2016-May-21 00:33N 47°48' W 122°26'1110.5
2016-May-20 23:33N 47°38' W 122°23'0 0.0
2016-May-20 22:33N 47°38' W 122°23'0 0.0
2016-May-20 21:33N 47°38' W 122°23'0 0.0
2016-May-20 20:33N 47°38' W 122°23'0 0.0
2016-May-20 19:33N 47°38' W 122°23'0 0.0
2016-May-20 18:33N 47°38' W 122°23'0 0.0
2016-May-20 17:33N 47°38' W 122°23'0 0.0
2016-May-20 16:33N 47°38' W 122°23'0 0.0
2016-May-20 15:33N 47°38' W 122°23'0 0.0
2016-May-20 14:33N 47°38' W 122°23'0 0.0
2016-May-20 13:33N 47°38' W 122°23'0 0.0
2016-May-20 12:33N 47°38' W 122°23'6 6.0
2016-May-20 11:34N 47°43' W 122°28'1413.9
2016-May-20 10:33N 47°56' W 122°32'1313.3
2016-May-20 09:33N 48°08' W 122°42'1413.8
2016-May-20 08:33N 48°12' W 123°02'1414.2
2016-May-20 07:33N 48°10' W 123°23'1211.9
2016-May-20 06:34N 48°13' W 123°40'4711.7
2016-May-20 02:33N 48°29' W 124°47'1211.7
2016-May-20 01:33N 48°28' W 125°05'1211.7
2016-May-20 00:33N 48°28' W 125°22'1212.1
2016-May-19 23:33N 48°30' W 125°40'1211.9
2016-May-19 22:33N 48°33' W 125°58'1211.9
2016-May-19 21:33N 48°36' W 126°15'1211.8
2016-May-19 20:33N 48°38' W 126°33'14 3.3
2016-May-19 16:14N 48°40' W 126°11'15 8.8
2016-May-19 14:33N 48°37' W 125°50'9 8.7
2016-May-19 13:33N 48°34' W 125°37'10 8.9
2016-May-19 12:23N 48°32' W 125°21'5613.4
2016-May-19 08:14N 48°19' W 123°60'1014.3
2016-May-19 07:32N 48°16' W 123°45'1212.3
2016-May-19 06:33N 48°18' W 123°27'8 8.3
2016-May-19 05:33N 48°23' W 123°18'1313.2
2016-May-19 04:33N 48°36' W 123°14'1313.2
2016-May-19 03:34N 48°47' W 123°02'1414.3
2016-May-19 02:33N 48°58' W 123°16'1615.9
2016-May-19 01:34N 49°08' W 123°34'1313.0
2016-May-19 00:33N 49°12' W 123°53'2 2.5
2016-May-18 23:33N 49°10' W 123°55'0 0.0
2016-May-18 22:33N 49°10' W 123°55'0 0.0
2016-May-18 21:33N 49°10' W 123°55'0 0.0
2016-May-18 20:33N 49°10' W 123°55'0 0.0
2016-May-18 19:33N 49°10' W 123°55'0 0.0
2016-May-18 18:33N 49°10' W 123°55'0 0.0
2016-May-18 17:33N 49°10' W 123°55'0 0.0
2016-May-18 16:33N 49°10' W 123°55'0 0.0
2016-May-18 15:33N 49°10' W 123°55'0 0.0
2016-May-18 14:33N 49°10' W 123°55'0 0.2
2016-May-18 13:33N 49°10' W 123°55'1010.1
2016-May-18 12:34N 49°12' W 123°40'1616.4
2016-May-18 11:33N 49°03' W 123°19'1616.1
2016-May-18 10:34N 48°52' W 123°02'  

Dump ship's entire track history